createdAt,value
2019-02-12T15:45:01.681Z,1.10
2019-02-12T15:48:07.463Z,0.97
2019-02-12T15:51:31.890Z,1.37
2019-02-12T15:54:37.719Z,1.00
2019-02-12T15:57:45.809Z,0.90
2019-02-12T16:00:50.600Z,0.77
2019-02-12T16:03:56.747Z,0.83
2019-02-12T16:07:03.775Z,0.83
2019-02-12T16:10:14.906Z,0.80
2019-02-12T16:13:21.145Z,0.97
2019-02-12T16:16:28.126Z,0.80
2019-02-12T16:19:34.266Z,0.70
2019-02-12T16:22:39.947Z,1.10
2019-02-12T16:25:46.095Z,0.83
2019-02-12T16:28:51.451Z,0.87
2019-02-12T16:31:58.096Z,1.10
2019-02-12T16:35:03.482Z,0.90
2019-02-12T16:38:09.307Z,0.90
2019-02-12T16:41:15.103Z,0.70
2019-02-12T16:44:20.444Z,1.00
2019-02-12T16:47:28.124Z,0.73
2019-02-12T16:50:34.301Z,0.90
2019-02-12T16:53:39.693Z,1.00
2019-02-12T16:56:45.199Z,0.97
2019-02-12T16:59:50.867Z,1.00
2019-02-12T17:02:57.008Z,0.80
2019-02-12T17:06:02.819Z,1.00
2019-02-12T17:09:09.422Z,0.80
2019-02-12T17:12:15.406Z,0.80
2019-02-12T17:15:20.923Z,0.73
2019-02-12T17:18:26.378Z,0.70
2019-02-12T17:21:31.782Z,0.77
2019-02-12T17:24:37.140Z,0.80
2019-02-12T17:27:42.903Z,0.80
2019-02-12T17:30:48.987Z,0.70
2019-02-12T17:33:54.467Z,0.90
2019-02-12T17:36:59.909Z,1.00
2019-02-12T17:40:05.646Z,0.87
2019-02-12T17:43:11.038Z,0.87
2019-02-12T17:46:16.411Z,0.80
2019-02-12T17:49:21.776Z,0.70
2019-02-12T17:52:27.148Z,0.67
2019-02-12T17:55:32.551Z,0.70
2019-02-12T17:58:38.670Z,0.70
2019-02-12T18:01:47.016Z,0.80
2019-02-12T18:04:52.677Z,0.70
2019-02-12T18:07:58.032Z,0.70
2019-02-12T18:11:03.807Z,0.67
2019-02-12T18:14:09.165Z,0.70
2019-02-12T18:17:15.020Z,0.57
2019-02-12T18:20:26.420Z,0.60
2019-02-12T18:23:27.883Z,0.80
2019-02-12T18:26:33.696Z,0.90
2019-02-12T18:29:39.132Z,0.70
2019-02-12T18:32:46.270Z,0.60
2019-02-12T18:35:51.625Z,0.80
2019-02-12T18:38:57.042Z,0.80
2019-02-12T18:42:02.461Z,0.53
2019-02-12T18:45:11.215Z,0.70
2019-02-12T18:48:17.399Z,0.70
2019-02-12T18:51:23.533Z,0.60
2019-02-12T18:54:29.284Z,0.80
2019-02-12T18:57:36.540Z,0.60
2019-02-12T19:00:41.937Z,0.60
2019-02-12T19:03:47.597Z,0.50
2019-02-12T19:06:52.995Z,0.40
2019-02-12T19:09:58.726Z,0.77
2019-02-12T19:13:04.879Z,0.70
2019-02-12T19:16:10.470Z,0.60
2019-02-12T19:19:15.891Z,0.60
2019-02-12T19:22:21.247Z,0.70
2019-02-12T19:25:27.788Z,0.80
2019-02-12T19:28:33.278Z,0.90
2019-02-12T19:31:40.607Z,1.00
2019-02-12T19:34:45.975Z,1.10
2019-02-12T19:37:53.014Z,1.03
2019-02-12T19:41:00.254Z,1.10
2019-02-12T19:44:05.633Z,1.10
2019-02-12T19:47:11.433Z,1.10
2019-02-12T19:50:17.137Z,1.10
2019-02-12T19:53:22.520Z,1.20
2019-02-12T19:56:27.926Z,1.10
2019-02-12T19:59:33.717Z,1.13
2019-02-12T20:02:41.131Z,1.20
2019-02-12T20:05:46.484Z,1.10
2019-02-12T20:08:52.847Z,1.20
2019-02-12T20:11:58.233Z,1.10
2019-02-12T20:15:03.764Z,1.10
2019-02-12T20:18:09.562Z,1.20
2019-02-12T20:21:34.033Z,1.10
2019-02-12T20:24:39.885Z,1.10
2019-02-12T20:27:45.479Z,1.20
2019-02-12T20:30:51.980Z,1.20
2019-02-12T20:33:57.514Z,1.20
2019-02-12T20:37:02.887Z,1.10
2019-02-12T20:40:12.853Z,0.90
2019-02-12T20:43:18.225Z,0.97
2019-02-12T20:46:23.618Z,1.30
2019-02-12T20:49:29.013Z,1.13
2019-02-12T20:52:36.711Z,1.10
2019-02-12T20:55:42.106Z,1.20
2019-02-12T20:58:47.493Z,1.03
2019-02-12T21:02:14.550Z,1.13
2019-02-12T21:05:23.486Z,1.20
2019-02-12T21:08:29.012Z,1.10
2019-02-12T21:11:36.312Z,0.90
2019-02-12T21:14:41.823Z,1.20
2019-02-12T21:17:48.811Z,1.00
2019-02-12T21:20:55.160Z,1.30
2019-02-12T21:24:01.980Z,1.33
2019-02-12T21:27:08.920Z,1.10
2019-02-12T21:30:19.495Z,1.20
2019-02-12T21:33:26.374Z,1.50
2019-02-12T21:36:31.829Z,1.30
2019-02-12T21:39:38.831Z,1.40
2019-02-12T21:42:45.603Z,1.37
2019-02-12T21:45:52.435Z,1.30
2019-02-12T21:48:58.471Z,1.27
2019-02-12T21:52:06.024Z,1.20
2019-02-12T21:55:13.052Z,1.33
2019-02-12T21:58:18.514Z,1.60
2019-02-12T22:01:25.514Z,1.57
2019-02-12T22:04:32.997Z,1.37
2019-02-12T22:07:39.879Z,1.23
2019-02-12T22:10:46.611Z,1.20
2019-02-12T22:13:54.119Z,1.40
2019-02-12T22:16:59.939Z,1.30
2019-02-12T22:20:06.195Z,1.40
2019-02-12T22:23:12.047Z,1.40
2019-02-12T22:26:20.526Z,1.60
2019-02-12T22:29:26.390Z,1.40
2019-02-12T22:32:32.131Z,1.50
2019-02-12T22:35:39.171Z,1.20
2019-02-12T22:38:44.586Z,1.50
2019-02-12T22:41:50.684Z,1.50
2019-02-12T22:44:56.489Z,1.40
2019-02-12T22:48:03.243Z,1.40
2019-02-12T22:51:10.111Z,1.50
2019-02-12T22:54:15.811Z,1.43
2019-02-12T22:57:24.630Z,1.27
2019-02-12T23:00:59.121Z,1.60
2019-02-12T23:04:05.263Z,1.40
2019-02-12T23:07:12.450Z,1.37
2019-02-12T23:10:18.250Z,1.20
2019-02-12T23:13:23.653Z,1.63
2019-02-12T23:16:29.653Z,1.40
2019-02-12T23:19:36.020Z,1.40
2019-02-12T23:22:42.092Z,1.30
2019-02-12T23:25:47.485Z,1.50
2019-02-12T23:28:53.233Z,1.30
2019-02-12T23:31:58.966Z,1.40
2019-02-12T23:35:04.869Z,1.47
2019-02-12T23:38:10.643Z,1.40
2019-02-12T23:41:16.033Z,1.40
2019-02-12T23:44:21.738Z,1.37
2019-02-12T23:47:27.129Z,1.40
2019-02-12T23:50:32.522Z,1.67
2019-02-12T23:53:38.228Z,1.60
2019-02-12T23:56:43.635Z,1.70
2019-02-12T23:59:50.117Z,1.40
